createdAt,value
2022-09-12T00:01:27.058Z,15.39
2022-09-12T00:04:00.953Z,15.42
2022-09-12T00:06:34.098Z,15.37
2022-09-12T00:09:09.782Z,15.29
2022-09-12T00:11:41.482Z,15.26
2022-09-12T00:14:15.450Z,15.26
2022-09-12T00:16:43.717Z,15.25
2022-09-12T00:19:12.420Z,15.21
2022-09-12T00:21:41.794Z,15.07
2022-09-12T00:24:11.029Z,14.97
2022-09-12T00:26:38.894Z,14.88
2022-09-12T00:29:06.835Z,14.95
2022-09-12T00:31:34.709Z,15.06
2022-09-12T00:34:02.490Z,15.10
2022-09-12T00:36:30.943Z,15.09
2022-09-12T00:38:59.470Z,15.12
2022-09-12T00:41:34.162Z,15.17
2022-09-12T00:44:21.981Z,15.15
2022-09-12T00:47:00.558Z,15.15
2022-09-12T00:49:52.272Z,15.15
2022-09-12T00:52:34.991Z,15.22
2022-09-12T00:55:12.028Z,15.36
2022-09-12T00:57:55.502Z,15.42
2022-09-12T01:00:26.643Z,15.47
2022-09-12T01:03:09.035Z,15.45
2022-09-12T01:05:44.388Z,15.52
2022-09-12T01:08:12.500Z,15.46
2022-09-12T01:10:42.506Z,15.47
2022-09-12T01:13:11.260Z,15.51
2022-09-12T01:15:40.338Z,15.51
2022-09-12T01:18:56.583Z,15.56
2022-09-12T01:22:13.014Z,15.62
2022-09-12T01:24:56.014Z,15.61
2022-09-12T01:27:36.840Z,15.54
2022-09-12T01:30:24.018Z,15.53
2022-09-12T01:33:12.553Z,15.60
2022-09-12T01:36:30.914Z,15.71
2022-09-12T01:39:41.332Z,15.75
2022-09-12T01:42:27.723Z,15.71
2022-09-12T01:45:23.882Z,15.67
2022-09-12T01:48:05.943Z,15.69
2022-09-12T01:51:07.586Z,15.74
2022-09-12T01:53:44.023Z,15.82
2022-09-12T01:56:27.053Z,15.82
2022-09-12T01:59:20.145Z,15.76
2022-09-12T02:02:18.874Z,15.82
2022-09-12T02:05:05.873Z,15.86
2022-09-12T02:07:43.785Z,15.90
2022-09-12T02:10:23.299Z,15.94
2022-09-12T02:13:32.106Z,15.89
2022-09-12T02:16:12.004Z,15.94
2022-09-12T02:18:47.170Z,16.01
2022-09-12T02:21:19.415Z,15.94
2022-09-12T02:23:57.369Z,15.90
2022-09-12T02:26:34.910Z,15.90
2022-09-12T02:29:04.389Z,15.91
2022-09-12T02:31:37.742Z,15.90
2022-09-12T02:34:39.822Z,15.94
2022-09-12T02:37:45.796Z,15.87
2022-09-12T02:40:14.783Z,15.72
2022-09-12T02:42:42.735Z,15.66
2022-09-12T02:45:12.518Z,15.63
2022-09-12T02:47:46.842Z,15.65
2022-09-12T02:50:14.758Z,15.62
2022-09-12T02:52:43.675Z,15.59
2022-09-12T02:55:12.524Z,15.63
2022-09-12T02:57:40.523Z,15.66
2022-09-12T03:00:09.733Z,15.64
2022-09-12T03:03:19.918Z,15.60
2022-09-12T03:06:02.109Z,15.62
2022-09-12T03:09:01.370Z,15.63
2022-09-12T03:12:07.326Z,15.62
2022-09-12T03:15:14.769Z,15.53
2022-09-12T03:17:56.421Z,15.52
2022-09-12T03:20:47.853Z,15.49
2022-09-12T03:23:24.220Z,15.47
2022-09-12T03:26:02.223Z,15.43
2022-09-12T03:28:34.612Z,15.36
2022-09-12T03:31:14.467Z,15.38
2022-09-12T03:33:42.441Z,15.34
2022-09-12T03:36:24.194Z,15.42
2022-09-12T03:38:52.563Z,15.60
2022-09-12T03:41:21.243Z,15.59
2022-09-12T03:43:49.078Z,15.59
2022-09-12T03:46:16.766Z,15.60
2022-09-12T03:48:44.465Z,15.59
2022-09-12T03:51:12.370Z,15.53
2022-09-12T03:53:40.119Z,15.47
2022-09-12T03:56:11.423Z,15.44
2022-09-12T03:58:39.438Z,15.56
2022-09-12T04:01:13.348Z,15.61
2022-09-12T04:03:47.761Z,15.54
2022-09-12T04:06:20.202Z,15.47
2022-09-12T04:08:53.918Z,15.43
2022-09-12T04:11:23.664Z,15.35
2022-09-12T04:13:51.836Z,15.32
2022-09-12T04:16:20.233Z,15.20
2022-09-12T04:18:48.060Z,15.18
2022-09-12T04:21:19.615Z,15.22
2022-09-12T04:23:48.291Z,15.24
2022-09-12T04:26:18.022Z,15.22
2022-09-12T04:28:46.666Z,15.23
2022-09-12T04:31:18.358Z,15.22
2022-09-12T04:33:46.528Z,15.17
2022-09-12T04:36:17.529Z,15.20
2022-09-12T04:38:47.669Z,15.23
2022-09-12T04:41:30.877Z,15.20
2022-09-12T04:44:03.252Z,15.26
2022-09-12T04:46:35.677Z,15.20
2022-09-12T04:49:05.134Z,15.22
2022-09-12T04:51:36.409Z,15.18
2022-09-12T04:54:10.956Z,15.13
2022-09-12T04:56:41.297Z,15.12
2022-09-12T04:59:09.161Z,15.22
2022-09-12T05:01:37.191Z,15.25
2022-09-12T05:04:05.379Z,15.29
2022-09-12T05:06:37.060Z,15.32
2022-09-12T05:09:07.769Z,15.30
2022-09-12T05:12:03.309Z,15.30
2022-09-12T05:14:27.456Z,15.25
2022-09-12T05:16:59.671Z,15.20
2022-09-12T05:19:30.066Z,15.20
2022-09-12T05:21:58.991Z,15.23
2022-09-12T05:24:27.060Z,15.23
2022-09-12T05:26:55.189Z,15.21
2022-09-12T05:29:22.920Z,15.14
2022-09-12T05:31:53.417Z,15.15
2022-09-12T05:34:21.615Z,15.18
2022-09-12T05:36:49.570Z,15.27
2022-09-12T05:39:18.529Z,15.36
2022-09-12T05:41:47.306Z,15.34
2022-09-12T05:44:15.540Z,15.37
2022-09-12T05:46:51.330Z,15.31
2022-09-12T05:49:19.215Z,15.26
2022-09-12T05:51:46.921Z,15.26
2022-09-12T05:54:19.445Z,15.40
2022-09-12T05:56:48.848Z,15.49
2022-09-12T05:59:21.107Z,15.57
2022-09-12T06:01:49.120Z,15.66
2022-09-12T06:04:17.563Z,15.74
2022-09-12T06:06:46.809Z,15.86
2022-09-12T06:09:16.896Z,15.91
2022-09-12T06:11:46.574Z,15.84
2022-09-12T06:14:17.868Z,15.84
2022-09-12T06:16:47.367Z,15.82
2022-09-12T06:19:21.874Z,15.81
2022-09-12T06:21:53.468Z,15.80
2022-09-12T06:24:21.786Z,15.90
2022-09-12T06:26:52.813Z,15.91
2022-09-12T06:29:21.241Z,15.92
2022-09-12T06:31:48.945Z,15.98
2022-09-12T06:34:16.986Z,16.15
2022-09-12T06:36:48.739Z,16.26
2022-09-12T06:39:22.623Z,16.44
2022-09-12T06:41:52.210Z,16.62
2022-09-12T06:44:29.790Z,16.78
2022-09-12T06:46:58.693Z,16.89
2022-09-12T06:49:26.391Z,16.95
2022-09-12T06:51:54.004Z,17.01
2022-09-12T06:54:21.657Z,17.12
2022-09-12T06:56:49.379Z,17.23
2022-09-12T06:59:17.091Z,17.32
2022-09-12T07:01:44.767Z,17.44
2022-09-12T07:04:12.546Z,17.56
2022-09-12T07:06:43.996Z,17.64
2022-09-12T07:09:16.987Z,17.78
2022-09-12T07:11:46.090Z,17.86
2022-09-12T07:14:15.134Z,17.88
2022-09-12T07:16:43.493Z,17.94
2022-09-12T07:19:12.071Z,18.07
2022-09-12T07:21:40.772Z,18.12
2022-09-12T07:24:11.079Z,18.15
2022-09-12T07:26:42.229Z,18.23
2022-09-12T07:29:35.883Z,18.24
2022-09-12T07:32:05.823Z,18.25
2022-09-12T07:34:34.927Z,18.28
2022-09-12T07:37:03.127Z,18.25
2022-09-12T07:39:30.961Z,18.33
2022-09-12T07:41:59.170Z,18.43
2022-09-12T07:44:29.058Z,18.48
2022-09-12T07:46:56.728Z,18.65
2022-09-12T07:49:24.417Z,18.73
2022-09-12T07:51:52.170Z,18.75
2022-09-12T07:54:20.024Z,18.84
2022-09-12T07:56:47.703Z,18.99
2022-09-12T07:59:29.963Z,19.17
2022-09-12T08:02:03.953Z,19.34
2022-09-12T08:04:31.691Z,19.42
2022-09-12T08:06:59.357Z,19.43
2022-09-12T08:09:26.998Z,19.54
2022-09-12T08:11:54.662Z,19.70
2022-09-12T08:14:22.730Z,19.79
2022-09-12T08:16:50.334Z,19.90
2022-09-12T08:19:18.035Z,20.06
2022-09-12T08:21:45.757Z,20.10
2022-09-12T08:24:13.398Z,20.15
2022-09-12T08:26:41.167Z,20.16
2022-09-12T08:29:09.161Z,20.21
2022-09-12T08:31:37.025Z,20.39
2022-09-12T08:34:06.509Z,20.50
2022-09-12T08:36:35.440Z,20.61
2022-09-12T08:39:07.458Z,20.73
2022-09-12T08:41:40.983Z,20.81
2022-09-12T08:44:27.166Z,20.85
2022-09-12T08:47:10.815Z,20.83
2022-09-12T08:49:53.364Z,20.84
2022-09-12T08:52:37.282Z,20.93
2022-09-12T08:55:24.550Z,21.06
2022-09-12T08:57:53.646Z,21.12
2022-09-12T09:00:21.861Z,21.17
2022-09-12T09:03:01.731Z,21.25
2022-09-12T09:05:54.498Z,21.32
2022-09-12T09:08:58.350Z,21.37
2022-09-12T09:11:53.151Z,21.38
2022-09-12T09:14:54.458Z,21.40
2022-09-12T09:17:38.007Z,21.40
2022-09-12T09:20:28.529Z,21.43
2022-09-12T09:23:19.882Z,21.43
2022-09-12T09:26:01.746Z,21.47
2022-09-12T09:28:51.590Z,21.54
2022-09-12T09:31:23.487Z,21.75
2022-09-12T09:33:55.310Z,21.96
2022-09-12T09:36:41.146Z,22.16
2022-09-12T09:39:44.012Z,22.32
2022-09-12T09:42:54.152Z,22.44
2022-09-12T09:45:24.901Z,22.58
2022-09-12T09:48:27.658Z,22.60
2022-09-12T09:51:00.357Z,22.58
2022-09-12T09:53:48.801Z,22.59
2022-09-12T09:56:40.260Z,22.61
2022-09-12T09:59:28.206Z,22.59
2022-09-12T10:02:14.052Z,22.66
2022-09-12T10:04:55.915Z,22.74
2022-09-12T10:07:26.075Z,22.84
2022-09-12T10:10:19.591Z,23.05
2022-09-12T10:12:47.404Z,23.23
2022-09-12T10:15:21.571Z,23.29
2022-09-12T10:17:51.040Z,23.33
2022-09-12T10:20:42.993Z,23.38
2022-09-12T10:23:37.549Z,23.47
2022-09-12T10:26:13.057Z,23.50
2022-09-12T10:28:48.025Z,23.53
2022-09-12T10:31:29.656Z,23.52
2022-09-12T10:34:00.277Z,23.61
2022-09-12T10:36:40.456Z,23.79
2022-09-12T10:39:19.161Z,23.97
2022-09-12T10:41:47.149Z,24.12
2022-09-12T10:44:26.480Z,24.25
2022-09-12T10:46:55.422Z,24.30
2022-09-12T10:49:31.145Z,24.38
2022-09-12T10:52:22.561Z,24.53
2022-09-12T10:54:52.242Z,24.72
2022-09-12T10:57:51.135Z,24.91
2022-09-12T11:00:27.452Z,25.11
2022-09-12T11:03:52.237Z,25.17
2022-09-12T11:06:32.202Z,25.24
2022-09-12T11:09:24.026Z,25.30
2022-09-12T11:12:36.686Z,25.27
2022-09-12T11:16:00.355Z,25.30
2022-09-12T11:19:03.310Z,25.31
2022-09-12T11:22:19.330Z,25.17
2022-09-12T11:25:20.084Z,25.06
2022-09-12T11:28:14.098Z,25.02
2022-09-12T11:31:22.552Z,25.12
2022-09-12T11:33:56.670Z,25.21
2022-09-12T11:36:36.927Z,25.24
2022-09-12T11:39:21.937Z,25.32
2022-09-12T11:41:56.922Z,25.38
2022-09-12T11:44:41.798Z,25.37
2022-09-12T11:47:14.488Z,25.35
2022-09-12T11:49:51.450Z,25.34
2022-09-12T11:52:26.914Z,25.26
2022-09-12T11:55:17.097Z,25.25
2022-09-12T11:57:54.949Z,25.29
2022-09-12T12:00:39.788Z,25.22
2022-09-12T12:03:37.167Z,25.15
2022-09-12T12:06:30.698Z,25.09
2022-09-12T12:08:59.171Z,25.22
2022-09-12T12:11:37.560Z,25.32
2022-09-12T12:14:20.790Z,25.40
2022-09-12T12:16:49.994Z,25.46
2022-09-12T12:19:17.555Z,25.53
2022-09-12T12:21:50.938Z,25.60
2022-09-12T12:24:26.617Z,25.69
2022-09-12T12:27:43.731Z,25.68
2022-09-12T12:30:29.451Z,25.50
2022-09-12T12:33:15.998Z,25.43
2022-09-12T12:36:03.453Z,25.41
2022-09-12T12:38:43.027Z,25.33
2022-09-12T12:41:16.424Z,25.30
2022-09-12T12:43:50.189Z,25.38
2022-09-12T12:46:24.114Z,25.44
2022-09-12T12:49:11.107Z,25.54
2022-09-12T12:52:02.393Z,25.56
2022-09-12T12:54:33.745Z,25.52
2022-09-12T12:57:20.243Z,25.58
2022-09-12T12:59:56.323Z,25.63
2022-09-12T13:02:26.976Z,25.73
2022-09-12T13:04:56.318Z,25.81
2022-09-12T13:07:39.454Z,25.91
2022-09-12T13:10:08.442Z,25.93
2022-09-12T13:12:48.924Z,26.05
2022-09-12T13:15:49.509Z,26.11
2022-09-12T13:18:28.247Z,26.16
2022-09-12T13:21:11.715Z,26.25
2022-09-12T13:23:40.687Z,26.36
2022-09-12T13:26:21.341Z,26.39
2022-09-12T13:28:50.153Z,26.35
2022-09-12T13:31:31.110Z,26.34
2022-09-12T13:34:04.113Z,26.37
2022-09-12T13:36:51.333Z,26.55
2022-09-12T13:39:28.840Z,26.74
2022-09-12T13:42:43.711Z,26.87
2022-09-12T13:45:23.092Z,26.97
2022-09-12T13:48:01.958Z,26.94
2022-09-12T13:51:06.121Z,26.91
2022-09-12T13:53:47.369Z,26.83
2022-09-12T13:56:20.742Z,26.77
2022-09-12T13:58:57.583Z,26.69
2022-09-12T14:01:42.863Z,26.60
2022-09-12T14:04:39.666Z,26.56
2022-09-12T14:07:23.485Z,26.57
2022-09-12T14:10:00.962Z,26.60
2022-09-12T14:12:40.328Z,26.69
2022-09-12T14:15:24.570Z,26.85
2022-09-12T14:18:03.157Z,26.85
2022-09-12T14:20:37.860Z,26.80
2022-09-12T14:23:21.496Z,26.67
2022-09-12T14:25:49.997Z,26.62
2022-09-12T14:28:23.171Z,26.76
2022-09-12T14:31:06.680Z,26.98
2022-09-12T14:34:09.624Z,27.20
2022-09-12T14:36:51.914Z,27.32
2022-09-12T14:39:34.031Z,27.26
2022-09-12T14:42:20.998Z,27.28
2022-09-12T14:45:31.377Z,27.21
2022-09-12T14:47:59.484Z,27.20
2022-09-12T14:50:35.289Z,27.21
2022-09-12T14:53:23.262Z,27.20
2022-09-12T14:55:58.133Z,27.12
2022-09-12T14:58:28.190Z,27.01
2022-09-12T15:01:08.268Z,26.90
2022-09-12T15:03:53.395Z,26.81
2022-09-12T15:06:29.235Z,26.73
2022-09-12T15:09:08.445Z,26.70
2022-09-12T15:11:36.172Z,26.63
2022-09-12T15:14:13.988Z,26.57
2022-09-12T15:16:42.069Z,26.50
2022-09-12T15:19:09.736Z,26.43
2022-09-12T15:21:37.806Z,26.32
2022-09-12T15:24:05.658Z,26.27
2022-09-12T15:26:33.362Z,26.20
2022-09-12T15:29:01.065Z,26.14
2022-09-12T15:31:31.627Z,26.01
2022-09-12T15:34:01.636Z,25.90
2022-09-12T15:36:29.870Z,25.85
2022-09-12T15:38:58.349Z,25.83
2022-09-12T15:41:37.403Z,25.84
2022-09-12T15:44:11.146Z,25.85
2022-09-12T15:46:39.535Z,25.80
2022-09-12T15:49:07.525Z,25.75
2022-09-12T15:51:35.210Z,25.72
2022-09-12T15:54:04.853Z,25.65
2022-09-12T15:56:32.704Z,25.58
2022-09-12T15:59:00.557Z,25.51
2022-09-12T16:01:29.328Z,25.46
2022-09-12T16:03:57.886Z,25.46
2022-09-12T16:06:27.608Z,25.41
2022-09-12T16:08:55.412Z,25.45
2022-09-12T16:11:26.709Z,25.48
2022-09-12T16:13:56.827Z,25.53
2022-09-12T16:16:24.623Z,25.60
2022-09-12T16:18:52.830Z,25.68
2022-09-12T16:21:20.686Z,25.87
2022-09-12T16:23:49.352Z,26.04
2022-09-12T16:26:17.454Z,26.11
2022-09-12T16:28:45.714Z,26.09
2022-09-12T16:31:14.480Z,26.06
2022-09-12T16:33:42.199Z,26.03
2022-09-12T16:36:14.154Z,25.97
2022-09-12T16:38:47.805Z,25.91
2022-09-12T16:41:17.651Z,25.83
2022-09-12T16:43:46.234Z,25.71
2022-09-12T16:46:21.295Z,25.62
2022-09-12T16:48:52.935Z,25.52
2022-09-12T16:51:28.130Z,25.41
2022-09-12T16:53:56.290Z,25.31
2022-09-12T16:56:25.309Z,25.18
2022-09-12T16:58:54.287Z,25.09
2022-09-12T17:01:25.446Z,25.00
2022-09-12T17:03:58.789Z,24.95
2022-09-12T17:06:27.949Z,24.91
2022-09-12T17:09:06.401Z,24.86
2022-09-12T17:11:38.128Z,24.74
2022-09-12T17:14:08.650Z,24.63
2022-09-12T17:16:47.980Z,24.60
2022-09-12T17:19:26.693Z,24.52
2022-09-12T17:21:54.770Z,24.47
2022-09-12T17:24:23.071Z,24.46
2022-09-12T17:26:51.747Z,24.44
2022-09-12T17:29:19.862Z,24.43
2022-09-12T17:31:48.175Z,24.37
2022-09-12T17:34:17.586Z,24.29
2022-09-12T17:36:45.669Z,24.19
2022-09-12T17:39:14.698Z,24.07
2022-09-12T17:41:43.156Z,23.97
2022-09-12T17:44:13.759Z,23.89
2022-09-12T17:46:42.429Z,23.76
2022-09-12T17:49:18.569Z,23.63
2022-09-12T17:51:46.398Z,23.52
2022-09-12T17:54:17.749Z,23.45
2022-09-12T17:56:47.366Z,23.37
2022-09-12T17:59:21.815Z,23.26
2022-09-12T18:02:08.113Z,23.19
2022-09-12T18:04:35.815Z,23.12
2022-09-12T18:07:05.938Z,23.09
2022-09-12T18:09:34.114Z,23.02
2022-09-12T18:12:02.198Z,22.98
2022-09-12T18:14:29.917Z,22.93
2022-09-12T18:16:57.757Z,22.82
2022-09-12T18:19:26.639Z,22.72
2022-09-12T18:21:55.938Z,22.64
2022-09-12T18:24:24.071Z,22.56
2022-09-12T18:26:51.808Z,22.53
2022-09-12T18:29:20.041Z,22.57
2022-09-12T18:31:49.085Z,22.57
2022-09-12T18:34:18.227Z,22.55
2022-09-12T18:36:50.956Z,22.51
2022-09-12T18:39:18.778Z,22.50
2022-09-12T18:41:46.530Z,22.51
2022-09-12T18:44:14.343Z,22.49
2022-09-12T18:46:42.157Z,22.47
2022-09-12T18:49:10.396Z,22.49
2022-09-12T18:51:40.132Z,22.40
2022-09-12T18:54:13.981Z,22.28
2022-09-12T18:56:43.937Z,22.21
2022-09-12T18:59:15.263Z,22.13
2022-09-12T19:01:43.875Z,22.08
2022-09-12T19:04:14.324Z,22.06
2022-09-12T19:06:48.188Z,22.02
2022-09-12T19:09:18.956Z,21.93
2022-09-12T19:11:50.703Z,21.87
2022-09-12T19:14:22.800Z,21.87
2022-09-12T19:16:52.003Z,21.87
2022-09-12T19:19:20.533Z,21.79
2022-09-12T19:21:48.292Z,21.74
2022-09-12T19:24:17.187Z,21.79
2022-09-12T19:26:45.392Z,21.73
2022-09-12T19:29:14.708Z,21.64
2022-09-12T19:31:44.901Z,21.59
2022-09-12T19:34:17.355Z,21.61
2022-09-12T19:36:46.918Z,21.69
2022-09-12T19:39:19.943Z,21.68
2022-09-12T19:41:58.079Z,21.66
2022-09-12T19:44:28.658Z,21.66
2022-09-12T19:47:03.472Z,21.71
2022-09-12T19:49:44.689Z,21.68
2022-09-12T19:52:17.547Z,21.68
2022-09-12T19:54:49.284Z,21.61
2022-09-12T19:57:21.012Z,21.69
2022-09-12T19:59:49.971Z,21.72
2022-09-12T20:02:21.472Z,21.67
2022-09-12T20:04:49.546Z,21.68
2022-09-12T20:07:17.463Z,21.73
2022-09-12T20:09:45.944Z,21.70
2022-09-12T20:12:24.182Z,21.66
2022-09-12T20:14:57.161Z,21.57
2022-09-12T20:17:27.991Z,21.47
2022-09-12T20:19:56.467Z,21.48
2022-09-12T20:22:24.842Z,21.48
2022-09-12T20:24:52.943Z,21.36
2022-09-12T20:27:20.963Z,21.28
2022-09-12T20:29:49.900Z,21.29
2022-09-12T20:32:22.178Z,21.28
2022-09-12T20:34:51.827Z,21.18
2022-09-12T20:37:21.242Z,21.06
2022-09-12T20:39:51.894Z,20.94
2022-09-12T20:42:20.289Z,20.85
2022-09-12T20:44:48.822Z,20.77
2022-09-12T20:47:16.692Z,20.72
2022-09-12T20:49:44.395Z,20.72
2022-09-12T20:52:12.127Z,20.73
2022-09-12T20:54:47.505Z,20.70
2022-09-12T20:57:15.212Z,20.62
2022-09-12T20:59:56.912Z,20.57
2022-09-12T21:02:24.767Z,20.50
2022-09-12T21:04:52.752Z,20.45
2022-09-12T21:07:20.450Z,20.45
2022-09-12T21:09:48.091Z,20.42
2022-09-12T21:12:15.886Z,20.47
2022-09-12T21:14:43.622Z,20.53
2022-09-12T21:17:11.362Z,20.51
2022-09-12T21:19:39.318Z,20.41
2022-09-12T21:22:07.042Z,20.40
2022-09-12T21:24:34.766Z,20.40
2022-09-12T21:27:04.555Z,20.38
2022-09-12T21:29:32.664Z,20.43
2022-09-12T21:32:00.338Z,20.48
2022-09-12T21:34:28.190Z,20.50
2022-09-12T21:36:55.857Z,20.42
2022-09-12T21:39:23.777Z,20.42
2022-09-12T21:41:51.450Z,20.39
2022-09-12T21:44:19.206Z,20.30
2022-09-12T21:46:46.954Z,20.28
2022-09-12T21:49:14.760Z,20.28
2022-09-12T21:51:42.509Z,20.26
2022-09-12T21:54:10.165Z,20.25
2022-09-12T21:56:37.953Z,20.25
2022-09-12T21:59:05.678Z,20.25
2022-09-12T22:01:33.618Z,20.29
2022-09-12T22:04:01.409Z,20.30
2022-09-12T22:06:29.187Z,20.14
2022-09-12T22:08:57.023Z,20.01
2022-09-12T22:11:24.778Z,19.96
2022-09-12T22:13:52.850Z,19.85
2022-09-12T22:16:20.691Z,19.78
2022-09-12T22:18:50.586Z,19.78
2022-09-12T22:21:24.245Z,19.82
2022-09-12T22:24:10.592Z,19.80
2022-09-12T22:26:44.842Z,19.73
2022-09-12T22:29:13.605Z,19.64
2022-09-12T22:31:41.778Z,19.58
2022-09-12T22:34:09.857Z,19.56
2022-09-12T22:36:39.193Z,19.59
2022-09-12T22:39:08.262Z,19.59
2022-09-12T22:41:36.232Z,19.46
2022-09-12T22:44:04.088Z,19.38
2022-09-12T22:46:32.486Z,19.33
2022-09-12T22:49:00.695Z,19.28
2022-09-12T22:51:28.522Z,19.29
2022-09-12T22:53:56.855Z,19.32
2022-09-12T22:56:26.049Z,19.35
2022-09-12T22:58:54.231Z,19.51
2022-09-12T23:01:22.887Z,19.56
2022-09-12T23:03:51.645Z,19.59
2022-09-12T23:06:21.032Z,19.58
2022-09-12T23:08:48.737Z,19.52
2022-09-12T23:11:21.456Z,19.47
2022-09-12T23:13:51.386Z,19.52
2022-09-12T23:16:25.993Z,19.58
2022-09-12T23:18:54.124Z,19.52
2022-09-12T23:21:22.468Z,19.51
2022-09-12T23:23:50.902Z,19.53
2022-09-12T23:26:24.862Z,19.53
2022-09-12T23:28:56.922Z,19.50
2022-09-12T23:31:32.229Z,19.43
2022-09-12T23:34:06.018Z,19.37
2022-09-12T23:36:35.592Z,19.30
2022-09-12T23:39:03.537Z,19.33
2022-09-12T23:41:31.650Z,19.33
2022-09-12T23:43:59.648Z,19.34
2022-09-12T23:46:27.495Z,19.37
2022-09-12T23:48:55.243Z,19.35
2022-09-12T23:51:23.081Z,19.34
2022-09-12T23:53:53.135Z,19.32
2022-09-12T23:56:22.130Z,19.33
2022-09-12T23:58:50.175Z,19.34
